Flight Track Log - Related Links

Times and Time Zones

All times are in EDT time to prevent confusion due to time zone crossing. See the N153DS flight status page for this flight to view local times or setup timezone preferences in your user account.

Time Position Orientation Groundspeed Altitude Reporting Facility
EDT Latitude Longitude Course Direction KTS MPH feet Rate Location/Type
Sat 01:39:56 PM 33.8167 -116.3333 183° South 95 109 6,900  Level Southern California TRACON
Sat 01:40:15 PM 33.8042 -116.3342 143° Southeast 97 112 7,000 444 Climbing Los Angeles Center
Sat 01:41:17 PM 33.7844 -116.3161 107° East 92 106 7,500 435 Climbing Los Angeles Center
Sat 01:42:19 PM 33.7775 -116.2889 89° East 92 106 7,900 432 Climbing Los Angeles Center
Sat 01:43:22 PM 33.7781 -116.2550 87° East 91 105 8,400 384 Climbing Los Angeles Center
Sat 01:44:24 PM 33.7792 -116.2261 95° East 94 108 8,700 484 Climbing Los Angeles Center
Sat 01:45:00 PM 33.7904 -116.0197 265° West  Level FlightAware Approximate
Sat 01:45:26 PM 33.7769 -116.1950 91° East 91 105 9,400  Level Los Angeles Center
Sat 01:46:28 PM 33.7767 -116.1681 93° East 87 100 9,600 290 Climbing Los Angeles Center
Sat 01:47:30 PM 33.7756 -116.1392 89° East 85 98 10,000 242 Climbing Los Angeles Center
Sat 01:48:32 PM 33.7761 -116.1058 92° East 87 100 10,100 97 Climbing Los Angeles Center
Sat 01:49:34 PM 33.7744 -116.0592 91° East 101 116 10,200 48 Climbing Los Angeles Center
Sat 01:50:36 PM 33.7739 -116.0181 92° East 112 129 10,200 -48 Level Los Angeles Center
Sat 01:51:38 PM 33.7728 -115.9750 91° East 120 138 10,100 48 Descending Los Angeles Center
Sat 01:52:40 PM 33.7722 -115.9350 73° East 122 140 10,300 194 Climbing Los Angeles Center
Sat 01:53:42 PM 33.7803 -115.9031 72° East 113 130 10,500 242 Climbing Los Angeles Center
Sat 01:54:44 PM 33.7878 -115.8753 76° East 99 114 10,800 242 Climbing Los Angeles Center
Sat 01:55:46 PM 33.7950 -115.8397 78° East 92 106 11,000 97 Climbing Los Angeles Center
Sat 01:56:48 PM 33.8011 -115.8056 78° East 96 110 11,000 -5 Level Los Angeles Center
Sat 01:58:00 PM 33.8014 -115.7587 78° East  Level FlightAware Approximate
Sat 02:05:00 PM 33.8482 -115.4931 77° East  Level FlightAware Approximate
Sat 02:06:00 PM 33.8549 -115.4552 77° East  Level FlightAware Approximate
Sat 02:07:00 PM 33.8615 -115.4172 77° East  Level FlightAware Approximate
Sat 02:08:00 PM 33.8681 -115.3792 77° East  Level FlightAware Approximate
Sat 02:09:00 PM 33.8747 -115.3413 77° East  Level FlightAware Approximate
Sat 02:10:00 PM 33.8813 -115.3033 77° East  Level FlightAware Approximate
Sat 02:11:00 PM 33.8879 -115.2653 77° East  Level FlightAware Approximate
Sat 02:12:00 PM 33.8945 -115.2273 76° East  Level FlightAware Approximate
Sat 02:13:00 PM 33.9011 -115.1893 75° East  Level FlightAware Approximate
Sat 02:14:00 PM 33.9076 -115.1513 73° East  Level FlightAware Approximate
Sat 02:14:24 PM 33.9197 -115.1036 79° East 124 143 10,900  Level Los Angeles Center
Sat 02:15:00 PM 33.9141 -115.1133 74° East  Level FlightAware Approximate
Sat 02:15:26 PM 33.9264 -115.0628 78° East 124 143 10,900  Level Los Angeles Center
Sat 02:16:00 PM 33.9207 -115.0753 77° East  Level FlightAware Approximate
Sat 02:17:00 PM 33.9272 -115.0372 77° East  Level FlightAware Approximate
Sat 02:17:00 PM 33.9356 -115.0077 78° East  Level FlightAware Approximate
Sat 02:18:00 PM 33.9337 -114.9992 76° East  Level FlightAware Approximate
Sat 02:19:00 PM 33.9276 -115.0360 77° East  Level FlightAware Approximate
Sat 02:19:36 PM 33.9550 -114.8958 78° East 126 145 10,900  Level Albuquerque Center
Sat 02:20:38 PM 33.9622 -114.8539 76° East 127 146 10,900  Level Albuquerque Center
Sat 02:21:38 PM 33.9708 -114.8117 80° East 125 144 10,900  Level Los Angeles Center
Sat 02:22:40 PM 33.9772 -114.7697 80° East 126 145 10,900  Level Los Angeles Center
Sat 02:23:43 PM 33.9831 -114.7306 77° East 122 140 10,900  Level Los Angeles Center
Sat 02:24:00 PM 33.9784 -114.7504 76° East  Level FlightAware Approximate
Sat 02:24:45 PM 33.9908 -114.6894 79° East 125 144 10,900  Level Los Angeles Center
Sat 02:25:47 PM 33.9989 -114.6414 80° East 123 142 10,900  Level Los Angeles Center
Sat 02:26:48 PM 34.0042 -114.6036 78° East 124 143 10,900  Level Albuquerque Center
Sat 02:27:50 PM 34.0114 -114.5625 78° East 125 144 10,900  Level Albuquerque Center
Sat 02:28:51 PM 34.0183 -114.5219 80° East 125 144 10,900  Level Albuquerque Center
Sat 02:29:53 PM 34.0239 -114.4822 75° East 124 143 10,900  Level Albuquerque Center
Sat 02:30:54 PM 34.0342 -114.4356 81° East 130 150 10,900  Level Albuquerque Center
Sat 02:31:56 PM 34.0397 -114.3944 78° East 128 147 10,900  Level Albuquerque Center
Sat 02:32:57 PM 34.0467 -114.3547 79° East 124 143 10,900  Level Albuquerque Center
Sat 02:33:59 PM 34.0544 -114.3053 79° East 124 143 10,900  Level Albuquerque Center
Sat 02:35:01 PM 34.0608 -114.2650 78° East 123 142 10,900 49 Level Albuquerque Center
Sat 02:36:02 PM 34.0669 -114.2289 77° East 124 143 11,000 49 Climbing Albuquerque Center
Sat 02:37:04 PM 34.0761 -114.1803 79° East 125 144 11,000  Level Albuquerque Center
Sat 02:38:05 PM 34.0828 -114.1392 80° East 124 143 11,000  Level Albuquerque Center
Sat 02:39:07 PM 34.0889 -114.0978 80° East 125 144 11,000  Level Albuquerque Center
Sat 02:40:09 PM 34.0947 -114.0575 80° East 124 143 11,000  Level Albuquerque Center
Sat 02:41:10 PM 34.1006 -114.0186 76° East 121 139 11,000  Level Albuquerque Center
Sat 02:42:12 PM 34.1092 -113.9783 79° East 121 139 11,000  Level Albuquerque Center
Sat 02:43:14 PM 34.1156 -113.9375 79° East 123 142 11,000  Level Albuquerque Center
Sat 02:44:15 PM 34.1233 -113.8886 80° East 124 143 11,000  Level Albuquerque Center
Sat 02:45:17 PM 34.1294 -113.8478 80° East 124 143 11,000  Level Albuquerque Center
Sat 02:46:18 PM 34.1353 -113.8072 80° East 123 142 11,000  Level Albuquerque Center
Sat 02:47:20 PM 34.1414 -113.7661 79° East 123 142 11,000 48 Level Albuquerque Center
Sat 02:48:22 PM 34.1478 -113.7250 78° East 124 143 11,100 49 Climbing Albuquerque Center
Sat 02:49:23 PM 34.1550 -113.6839 79° East 125 144 11,100  Level Albuquerque Center
Sat 02:50:25 PM 34.1633 -113.6328 84° East 126 145 11,100  Level Albuquerque Center
Sat 02:51:27 PM 34.1658 -113.6042 78° East 123 142 11,100  Level Albuquerque Center
Sat 02:52:28 PM 34.1747 -113.5553 79° East 123 142 11,100  Level Albuquerque Center
Sat 02:53:30 PM 34.1817 -113.5136 79° East 124 143 11,100  Level Albuquerque Center
Sat 02:54:32 PM 34.1886 -113.4719 80° East 125 144 11,100  Level Albuquerque Center
Sat 02:55:33 PM 34.1950 -113.4289 79° East 128 147 11,100  Level Albuquerque Center
Sat 02:56:35 PM 34.2014 -113.3872 79° East 127 146 11,100  Level Albuquerque Center
Sat 02:57:37 PM 34.2081 -113.3461 59° Northeast 126 145 11,100  Level Albuquerque Center
Sat 02:58:38 PM 34.2250 -113.3122 53° Northeast 118 136 11,100  Level Albuquerque Center
Sat 02:59:40 PM 34.2497 -113.2731 54° Northeast 117 135 11,100  Level Albuquerque Center
Sat 03:00:42 PM 34.2700 -113.2392 54° Northeast 121 139 11,100  Level Albuquerque Center
Sat 03:01:44 PM 34.2886 -113.2081 60° Northeast 119 137 11,100  Level Albuquerque Center
Sat 03:02:45 PM 34.3044 -113.1753 59° Northeast 114 131 11,100  Level Albuquerque Center
Sat 03:03:47 PM 34.3203 -113.1428 57° Northeast 113 130 11,100  Level Albuquerque Center
Sat 03:04:49 PM 34.3381 -113.1100 53° Northeast 114 131 11,100  Level Albuquerque Center
Sat 03:05:50 PM 34.3581 -113.0778 55° Northeast 118 136 11,100  Level Albuquerque Center
Sat 03:06:52 PM 34.3811 -113.0383 54° Northeast 119 137 11,100  Level Albuquerque Center
Sat 03:07:54 PM 34.4014 -113.0050 53° Northeast 121 139 11,100 -48 Level Albuquerque Center
Sat 03:08:56 PM 34.4200 -112.9747 53° Northeast 121 139 11,000 -49 Descending Albuquerque Center
Sat 03:09:57 PM 34.4392 -112.9442 56° Northeast 119 137 11,000 49 Level Albuquerque Center
Sat 03:10:59 PM 34.4608 -112.9053 55° Northeast 121 139 11,100 48 Climbing Albuquerque Center
Sat 03:12:01 PM 34.4794 -112.8728 55° Northeast 120 138 11,100  Level Albuquerque Center
Sat 03:13:02 PM 34.4983 -112.8403 55° Northeast 119 137 11,100  Level Albuquerque Center
Sat 03:14:04 PM 34.5172 -112.8078 56° Northeast 118 136 11,100  Level Albuquerque Center
Sat 03:15:06 PM 34.5381 -112.7697 59° Northeast 116 133 11,100  Level Albuquerque Center
Sat 03:16:07 PM 34.5536 -112.7381 57° Northeast 113 130 11,100  Level Albuquerque Center
Sat 03:17:09 PM 34.5706 -112.7067 51° Northeast 112 129 11,100 -48 Level Albuquerque Center
Sat 03:18:11 PM 34.5922 -112.6747 58° Northeast 116 133 11,000 -49 Descending Albuquerque Center
Sat 03:19:12 PM 34.6103 -112.6400 54° Northeast 118 136 11,000  Level Albuquerque Center
Sat 03:20:14 PM 34.6300 -112.6072 56° Northeast 120 138 11,000  Level Albuquerque Center
Sat 03:21:16 PM 34.6514 -112.5681 56° Northeast 118 136 11,000  Level Albuquerque Center
Sat 03:22:17 PM 34.6689 -112.5361 56° Northeast 116 133 11,000  Level Albuquerque Center
Sat 03:23:19 PM 34.6872 -112.5028 57° Northeast 117 135 11,000  Level Albuquerque Center
Sat 03:24:20 PM 34.7047 -112.4706 87° East 117 135 11,000  Level Albuquerque Center
Sat 03:25:22 PM 34.7064 -112.4272 88° East 133 153 11,000  Level Albuquerque Center
Sat 03:26:24 PM 34.7075 -112.3847 87° East 128 147 11,000  Level Albuquerque Center
Sat 03:27:25 PM 34.7094 -112.3408 85° East 124 143 11,000  Level Albuquerque Center
Sat 03:28:27 PM 34.7125 -112.2994 84° East 123 142 11,000  Level Albuquerque Center
Sat 03:29:29 PM 34.7167 -112.2497 79° East 123 142 11,000  Level Albuquerque Center
Sat 03:30:30 PM 34.7228 -112.2097 84° East 121 139 11,000  Level Albuquerque Center
Sat 03:31:32 PM 34.7267 -112.1681 86° East 123 142 11,000  Level Albuquerque Center
Sat 03:32:34 PM 34.7292 -112.1281 84° East 122 140 11,000  Level Albuquerque Center
Sat 03:33:35 PM 34.7328 -112.0872 84° East 121 139 11,000  Level Albuquerque Center
Sat 03:34:37 PM 34.7361 -112.0467 84° East 121 139 11,000  Level Albuquerque Center
Sat 03:35:39 PM 34.7394 -112.0075 66° East 119 137 11,000  Level Albuquerque Center
Sat 03:36:41 PM 34.7522 -111.9728 51° Northeast 116 133 11,000  Level Albuquerque Center
Sat 03:37:42 PM 34.7736 -111.9408 44° Northeast 115 132 11,000  Level Albuquerque Center
Sat 03:38:44 PM 34.7958 -111.9147 44° Northeast 113 130 11,000  Level Albuquerque Center
Sat 03:39:45 PM 34.8222 -111.8842 50° Northeast 111 128 11,000  Level Albuquerque Center
Sat 03:40:47 PM 34.8414 -111.8558 58° Northeast 110 127 11,000  Level Albuquerque Center
Sat 03:41:49 PM 34.8569 -111.8256 86° East 108 124 11,000  Level Albuquerque Center
Sat 03:42:50 PM 34.8594 -111.7858 87° East 121 139 11,000  Level Albuquerque Center
Sat 03:43:52 PM 34.8611 -111.7481 84° East 116 133 11,000  Level Albuquerque Center
Sat 03:44:54 PM 34.8644 -111.7103 80° East 116 133 11,000  Level Albuquerque Center
Sat 03:45:55 PM 34.8711 -111.6650 77° East 114 131 11,000  Level Albuquerque Center
Sat 03:46:57 PM 34.8778 -111.6289 70° East 111 128 11,000  Level Albuquerque Center
Sat 03:47:58 PM 34.8886 -111.5928 69° East 112 129 11,000  Level Albuquerque Center
Sat 03:49:00 PM 34.8997 -111.5567 70° East 113 130 11,000  Level Albuquerque Center
Sat 03:50:01 PM 34.9103 -111.5208 73° East 114 131 11,000  Level Albuquerque Center
Sat 03:51:03 PM 34.9203 -111.4817 77° East 117 135 11,000  Level Albuquerque Center
Sat 03:52:05 PM 34.9275 -111.4431 79° East 117 135 11,000  Level Albuquerque Center
Sat 03:53:06 PM 34.9342 -111.4028 77° East 118 136 11,000  Level Albuquerque Center
Sat 03:54:08 PM 34.9436 -111.3547 77° East 120 138 11,000  Level Albuquerque Center
Sat 03:55:09 PM 34.9511 -111.3158 77° East 120 138 11,000  Level Albuquerque Center
Sat 03:56:11 PM 34.9581 -111.2778 73° East 118 136 11,000  Level Albuquerque Center
Sat 03:57:13 PM 34.9672 -111.2400 76° East 118 136 11,000  Level Albuquerque Center
Sat 03:58:14 PM 34.9750 -111.2017 74° East 117 135 11,000  Level Albuquerque Center
Sat 03:59:16 PM 34.9839 -111.1628 75° East 118 136 11,000  Level Albuquerque Center
Sat 04:00:17 PM 34.9928 -111.1225 88° East 120 138 11,000  Level Albuquerque Center
Sat 04:01:19 PM 34.9942 -111.0739 87° East 118 136 11,000  Level Albuquerque Center
Sat 04:02:21 PM 34.9961 -111.0314 91° East 120 138 11,000  Level Albuquerque Center
Sat 04:03:22 PM 34.9958 -110.9939 69° East 121 139 11,000  Level Albuquerque Center
Sat 04:05:00 PM 35.0113 -110.9340 67° East  Level FlightAware Approximate
Sat 04:07:53 PM 35.0519 -110.8172 70° East 126 145 11,000  Level Albuquerque Center
Sat 04:08:55 PM 35.0625 -110.7822 88° East 118 136 11,000  Level Albuquerque Center
Sat 04:09:56 PM 35.0636 -110.7428 97° East 117 135 11,000  Level Albuquerque Center
Sat 04:10:58 PM 35.0589 -110.6933 97° East 121 139 11,000  Level Albuquerque Center
Sat 04:12:00 PM 35.0445 -110.6713 61° Northeast  Level FlightAware Approximate
Sat 04:12:00 PM 35.0544 -110.6492 97° East 127 146 11,000  Level Albuquerque Center
Sat 04:13:00 PM 35.0426 -110.6329 75° East  Level FlightAware Approximate
Sat 04:13:01 PM 35.0494 -110.6014 94° East 128 147 11,000  Level Albuquerque Center
Sat 04:14:03 PM 35.0472 -110.5592 96° East 129 148 11,000  Level Albuquerque Center
Sat 04:15:05 PM 35.0431 -110.5094 92° East 131 151 11,000  Level Albuquerque Center
Sat 04:16:06 PM 35.0417 -110.4664 95° East 132 152 11,000  Level Albuquerque Center
Sat 04:17:08 PM 35.0386 -110.4239 94° East 132 152 11,000  Level Albuquerque Center
Sat 04:18:10 PM 35.0358 -110.3750 96° East 131 151 11,000  Level Albuquerque Center
Sat 04:19:11 PM 35.0322 -110.3344 92° East 128 147 11,000  Level Albuquerque Center
Sat 04:20:13 PM 35.0311 -110.2858 93° East 129 148 11,000  Level Albuquerque Center
Sat 04:21:14 PM 35.0292 -110.2453 94° East 128 147 11,000  Level Albuquerque Center
Sat 04:22:16 PM 35.0264 -110.1961 92° East 128 147 11,000  Level Albuquerque Center
Sat 04:23:18 PM 35.0253 -110.1542 93° East 129 148 11,000  Level Albuquerque Center
Sat 04:24:19 PM 35.0233 -110.1119 96° East 130 150 11,000  Level Albuquerque Center
Sat 04:25:21 PM 35.0192 -110.0622 95° East 131 151 11,000  Level Albuquerque Center
Sat 04:26:23 PM 35.0161 -110.0214 95° East 129 148 11,000  Level Albuquerque Center
Sat 04:27:24 PM 35.0131 -109.9756 92° East 126 145 11,000  Level Albuquerque Center
Sat 04:28:26 PM 35.0117 -109.9347 92° East 126 145 11,000  Level Albuquerque Center
Sat 04:29:28 PM 35.0103 -109.8864 94° East 127 146 11,000  Level Albuquerque Center
Sat 04:30:29 PM 35.0081 -109.8442 93° East 129 148 11,000  Level Albuquerque Center
Sat 04:31:31 PM 35.0061 -109.8025 95° East 129 148 11,000  Level Albuquerque Center
Sat 04:32:32 PM 35.0028 -109.7558 94° East 126 145 11,000  Level Albuquerque Center
Sat 04:33:34 PM 35.0003 -109.7161 94° East 125 144 11,000  Level Albuquerque Center
Sat 04:34:36 PM 34.9972 -109.6672 95° East 126 145 11,000  Level Albuquerque Center
Sat 04:35:37 PM 34.9944 -109.6258 94° East 127 146 11,000  Level Albuquerque Center
Sat 04:36:39 PM 34.9917 -109.5775 94° East 128 147 11,000  Level Albuquerque Center
Sat 04:37:41 PM 34.9892 -109.5358 93° East 128 147 11,000  Level Albuquerque Center
Sat 04:38:42 PM 34.9869 -109.4875 95° East 129 148 11,000  Level Albuquerque Center
Sat 04:39:44 PM 34.9839 -109.4475 95° East 127 146 11,000  Level Albuquerque Center
Sat 04:40:46 PM 34.9808 -109.4078 93° East 126 145 11,000  Level Albuquerque Center
Sat 04:41:48 PM 34.9789 -109.3606 95° East 125 144 11,000  Level Albuquerque Center
Sat 04:42:49 PM 34.9758 -109.3192 93° East 126 145 11,000 49 Level Albuquerque Center
Sat 04:43:51 PM 34.9736 -109.2719 92° East 126 145 11,100  Climbing Albuquerque Center
Sat 04:44:53 PM 34.9725 -109.2286 96° East 128 147 11,000 -49 Descending Albuquerque Center
Sat 04:45:54 PM 34.9678 -109.1772 94° East 132 152 11,000  Level Albuquerque Center
Sat 04:46:56 PM 34.9653 -109.1328 88° East 135 155 11,000  Level Albuquerque Center
Sat 04:47:58 PM 34.9667 -109.0900 87° East 135 155 11,000  Level Albuquerque Center
Sat 04:48:59 PM 34.9686 -109.0417 85° East 132 152 11,000  Level Albuquerque Center
Sat 04:50:01 PM 34.9717 -109.0025 85° East 129 148 11,000  Level Albuquerque Center
Sat 04:51:03 PM 34.9753 -108.9536 86° East 127 146 11,000  Level Albuquerque Center
Sat 04:52:04 PM 34.9781 -108.9092 88° East 131 151 11,000  Level Albuquerque Center
Sat 04:53:06 PM 34.9794 -108.8547 86° East 136 157 11,000  Level Albuquerque Center
Sat 04:54:08 PM 34.9817 -108.8108 87° East 138 159 11,000  Level Albuquerque Center
Sat 04:55:09 PM 34.9836 -108.7614 86° East 135 155 11,000  Level Albuquerque Center
Sat 04:56:11 PM 34.9858 -108.7206 90° East 132 152 11,000  Level Albuquerque Center
Sat 04:57:13 PM 34.9861 -108.6764 87° East 132 152 11,000  Level Albuquerque Center
Sat 04:58:14 PM 34.9881 -108.6222 86° East 137 158 11,000  Level Albuquerque Center
Sat 04:59:16 PM 34.9906 -108.5761 88° East 139 160 11,000  Level Albuquerque Center
Sat 05:00:18 PM 34.9922 -108.5222 87° East 141 162 11,000  Level Albuquerque Center
Sat 05:01:19 PM 34.9944 -108.4758 87° East 142 163 11,000  Level Albuquerque Center
Sat 05:02:21 PM 34.9969 -108.4233 87° East 142 163 11,000  Level Albuquerque Center
Sat 05:03:23 PM 34.9986 -108.3797 90° East 139 160 11,000  Level Albuquerque Center
Sat 05:04:24 PM 34.9989 -108.3342 85° East 139 160 11,000 49 Level Albuquerque Center
Sat 05:05:26 PM 35.0028 -108.2825 85° East 138 159 11,100  Climbing Albuquerque Center
Sat 05:06:28 PM 35.0061 -108.2392 90° East 136 157 11,000 -49 Descending Albuquerque Center
Sat 05:07:29 PM 35.0064 -108.1872 86° East 137 158 11,000 -49 Level Albuquerque Center
Sat 05:08:31 PM 35.0092 -108.1408 86° East 140 161 10,900 -48 Descending Albuquerque Center
Sat 05:09:33 PM 35.0125 -108.0872 86° East 142 163 10,900 49 Level Albuquerque Center
Sat 05:10:34 PM 35.0153 -108.0414 89° East 142 163 11,000  Climbing Albuquerque Center
Sat 05:11:36 PM 35.0161 -107.9911 83° East 141 162 10,900  Descending Albuquerque Center
Sat 05:12:37 PM 35.0211 -107.9411 86° East 143 165 11,000  Climbing Albuquerque Center
Sat 05:13:39 PM 35.0239 -107.8931 91° East 146 168 10,900 -48 Descending Albuquerque Center
Sat 05:14:41 PM 35.0233 -107.8358 92° East 150 173 10,900 -48 Level Albuquerque Center
Sat 05:15:43 PM 35.0219 -107.7869 90° East 148 170 10,800 49 Descending Albuquerque Center
Sat 05:16:44 PM 35.0219 -107.7369 95° East 149 171 11,000 98 Climbing Albuquerque Center
Sat 05:17:46 PM 35.0183 -107.6856 84° East 149 171 11,000 -48 Level Albuquerque Center
Sat 05:18:48 PM 35.0228 -107.6331 83° East 154 177 10,900 -107 Descending Albuquerque Center
Sat 05:19:38 PM 35.0275 -107.5836 92° East 148 170 10,800 -81 Descending Albuquerque Center
Sat 05:20:02 PM 35.0269 -107.5681 85° East 143 165 10,800 82 Level Albuquerque Center
Sat 05:20:51 PM 35.0289 -107.5383 96° East 143 165 10,900  Climbing Albuquerque Center
Sat 05:21:09 PM 35.0269 -107.5164 86° East 129 148 10,800 98 Descending Albuquerque Center
Sat 05:21:52 PM 35.0286 -107.4839 95° East 136 157 11,000 295 Climbing Albuquerque Center
Sat 05:22:10 PM 35.0275 -107.4694 90° East 134 154 11,100 97 Climbing Albuquerque Center
Sat 05:22:54 PM 35.0275 -107.4478 87° East 135 155 11,100 -100 Level Albuquerque Center
Sat 05:23:10 PM 35.0286 -107.4253 93° East 130 150 11,000  Descending Albuquerque Center
Sat 05:23:56 PM 35.0272 -107.3947 87° East 133 153 11,100 197 Climbing Albuquerque Center
Sat 05:24:11 PM 35.0278 -107.3814 91° East 133 153 11,200  Climbing Albuquerque Center
Sat 05:24:58 PM 35.0272 -107.3472 84° East 136 157 11,100 -167 Descending Albuquerque Center
Sat 05:25:59 PM 35.0317 -107.2967 85° East 143 165 10,900 -49 Descending Albuquerque Center
Sat 05:27:01 PM 35.0350 -107.2475 89° East 145 167 11,000 -98 Climbing Albuquerque Center
Sat 05:28:02 PM 35.0356 -107.1969 78° East 147 169 10,700 -780 Descending Albuquerque Center
Sat 05:29:04 PM 35.0447 -107.1439 73° East 155 178 9,400 -878 Descending Albuquerque Center
Sat 05:30:05 PM 35.0589 -107.0875 78° East 147 169 8,900 -244 Descending Albuquerque Center
Sat 05:31:07 PM 35.0675 -107.0389 69° East 147 169 8,900  Level Albuquerque Center
Sat 05:33:00 PM 35.0899 -106.9687 75° East  Level Estimated
Sat 05:40:00 PM 35.1309 -106.7837 75° East  Level FlightAware Approximate

Login

Don't have an account? Register now (free) for customized features, flight alerts, and more!